Aérodrome :
LOGIN :

S'inscrire | Disclaimer

   EN    FR    IT 

 










Légende :    VFR   VFR Marginal   IFR   IFR Intensif   IFR Très Intensif
Visi : 
Plafond : 
>= 8 km
>= 3000ft
5 à 8 km
1000 à 3000 ft
1500m à 5 km
500 à 1000 ft
800 à 1500m
200 à 500 ft
< 800m
< 200 ft
Symboles :   Orages  Brouillard  Fortes neiges  Fortes précipitations  Vent > 20 kt
SIGMETs :   Divers  Orages  Givrage  Turbulence  Onde Orograph.  Cendres Volcan.







- Altitude de l'aérodrome : 348 ft
- Code IATA : TSR


LRTR - Timisoara

DERNIER METAR :
  • 211030Z 25011KT 220V280 CAVOK 21/02 Q1021

METARs EXPIRÉS :
  • 211000Z 20009KT 160V240 CAVOK 19/04 Q1022
  • 210930Z 23008KT CAVOK 18/05 Q1022
  • 210900Z 22009KT CAVOK 17/04 Q1022
  • 210830Z 21009KT CAVOK 16/03 Q1023
  • 210800Z 20008KT 170V230 CAVOK 15/04 Q1023

TAF TAF LRTR
Valide du 21 à 06h jusqu'au 22 à 06h UTC


210500Z 2106/2206 VRB04KT CAVOK
BECMG 2108/2110 24010KT
TEMPO 2114/2119 SCT040CB
BECMG 2120/2122 VRB04KT
Pas de NOTAMs connus pour ce terrain.



MET'MAP, la Météo Aéronautique d'un coup d'oeil ! - Copyright ORBIFLY Décembre 2007 - Disclaimer

ORBIFLY MET'MAP TEAM :

Programmation & Développement : Alexandra Zaïnal
Conception & Développement : Baudouin d'Aumeries
Co-Programmation & Développement : Marc-Olivier Méhu
Soutien technique & logistique : Manuel Goepfert

Contact : metmap@orbifly.com




SOURCES & CREDITS :

   NOAA